Motoplanete

Classement Silverstone Superbike 2010

Course disputée sur le circuit de Silverstone Circuit

1

Position Numéro Pilote Team Temps Tours Points Départ
1 35 Cal Crutchlow Yamaha Sterigarda Team 06:57:31 18 25 1
2 65 Jonathan Rea Hannspree Ten Kate Honda 07:24:32 18 20 2
3 91 Leon Haslam Team Suzuki Alstare 10:08:04 18 16 5
4 84 Michel Fabrizio Ducati Endurance Racing Team 11:22:05 18 13 3
5 3 Max Biaggi Aprilia Alitalia Racing 11:42:16 18 11 6
6 2 Leon Camier Aprilia Alitalia Racing 11:49:43 18 10 16
7 7 Carlos Checa Althea Racing 12:01:41 18 9 10
8 52 James Toseland Yamaha Sterigarda Team 12:13:09 18 8 12
9 67 Shane Byrne Althea Racing 13:20:48 18 7 9
10 11 Troy Corser Bmw Motorrad Motorsport 14:08:01 18 6 7
11 76 Max Neukirchner Hannspree Ten Kate Honda 15:33:43 18 5 18
12 50 Sylvain Guintoli Team Suzuki Alstare 15:47:39 18 4 11
13 96 Jakub Smrz Team Pata B&G Racing 15:54:04 18 3 4
14 41 Noriyuki Haga Ducati Xeros Team 16:10:57 18 2 15
15 57 Lorenzo Lanzi DFX Corse 16:27:38 18 1 14
16 25 Joshua Brookes Echo CRS Honda 16:56:30 18 0 17
17 111 Ruben Xaus Bmw Motorrad Motorsport 17:35:33 18 0 8
18 66 Shane Sykes Kawasaki Racing Team 18:02:54 18 0 13
19 87 Akira Yanagawa Kawasaki Racing Team 05:37:51 18 0 25
20 46 Thomas Bridewell TYCO Racing 05:38:49 18 0 24
21 8 Ryuichi Kiyonari HM Plant Honda 05:40:44 18 0 22
22 23 Broc Parkes Echo CRS Honda 01:00:00 0 0 19
23 95 Roger Lee Hayden Team Pedercini 01:00:00 0 0 21
24 15 Matteo Baiocco Team Pedercini 01:00:00 13 0 23

2

Position Numéro Pilote Team Temps Tours Points Départ
1 35 Cal Crutchlow Yamaha Sterigarda Team 07:05:48 18 25 1
2 65 Jonathan Rea Hannspree Ten Kate Honda 07:40:18 18 20 2
3 2 Leon Camier Aprilia Alitalia Racing 09:33:02 18 16 16
4 91 Leon Haslam Team Suzuki Alstare 10:46:20 18 13 5
5 52 James Toseland Yamaha Sterigarda Team 10:46:46 18 11 12
6 3 Max Biaggi Aprilia Alitalia Racing 10:51:56 18 10 6
7 50 Sylvain Guintoli Team Suzuki Alstare 10:58:31 18 9 11
8 67 Shane Byrne Althea Racing 11:06:20 18 8 9
9 96 Jakub Smrz Team Pata B&G Racing 11:39:07 18 7 4
10 7 Carlos Checa Althea Racing 12:37:02 18 6 10
11 111 Ruben Xaus Bmw Motorrad Motorsport 14:23:36 18 5 8
12 25 Joshua Brookes Echo CRS Honda 14:52:31 18 4 17
13 41 Noriyuki Haga Ducati Xeros Team 15:01:38 18 3 15
14 66 Shane Sykes Kawasaki Racing Team 15:27:45 18 2 13
15 57 Lorenzo Lanzi DFX Corse 15:32:43 18 1 14
16 8 Ryuichi Kiyonari HM Plant Honda 23:22:35 18 0 22
17 95 Roger Lee Hayden Team Pedercini 00:38:25 18 0 21
18 46 Thomas Bridewell TYCO Racing 00:40:46 18 0 24
19 87 Akira Yanagawa Kawasaki Racing Team 05:23:53 18 0 25
20 15 Matteo Baiocco Team Pedercini 05:26:07 18 0 23
21 11 Troy Corser Bmw Motorrad Motorsport 01:00:00 1 0 7
22 76 Max Neukirchner Hannspree Ten Kate Honda 01:00:00 6 0 18
23 23 Broc Parkes Echo CRS Honda 01:00:00 7 0 19
24 84 Michel Fabrizio Ducati Endurance Racing Team 01:00:00 14 0 3